Terminal Aerodrome Forecast
Issued by NWS Riverton, WY

Home | Current Version | Previous Version | Text Only | Print | Product List | Glossary On
Versions: 1 2 3 4 5 6 7 8 9 10 11 12 13
437
FTUS45 KRIW 232325
TAFRIW
TAF
KRIW 232325Z 2400/2424 17008KT P6SM SCT070
     FM240600 30008KT P6SM FEW070
     FM241600 26012G18KT P6SM FEW080
     FM242000 26018G28KT P6SM VCSH SCT060 BKN080=

USA.gov is the U.S. government's official web portal to all federal, state and local government web resources and services.